Time;durP1;ratioP1;P1;durP2;ratioP2;P2;SDS_P1;SDS_P2;PMS_P1;PMS_P2;Temp;Humidity;BMP_temperature;BMP_pressure;BME280_temperature;BME280_humidity;BME280_pressure;Samples;Min_cycle;Max_cycle;Signal;HPM_P1;HPM_P2
2023/06/25 00:05:21;;;;;;;20.27;13.32;;;;;;;16.91;100.00;101825.38;5206049;22;20053;-78
2023/06/25 00:07:53;;;;;;;16.55;12.88;;;;;;;17.04;100.00;101854.88;5014921;28;20046;-78
2023/06/25 00:10:19;;;;;;;17.83;13.90;;;;;;;17.83;100.00;101968.25;5032787;28;20057;-79
2023/06/25 00:12:44;;;;;;;17.55;13.88;;;;;;;17.77;100.00;101972.13;5032620;28;20091;-79
2023/06/25 00:15:11;;;;;;;17.67;12.52;;;;;;;17.88;100.00;101987.00;5032221;28;20029;-79
2023/06/25 00:17:36;;;;;;;22.08;14.27;;;;;;;17.87;100.00;101990.56;5032715;28;20029;-79
2023/06/25 00:20:02;;;;;;;18.13;13.65;;;;;;;17.83;100.00;101993.53;5032474;28;20029;-80
2023/06/25 00:22:27;;;;;;;16.58;13.30;;;;;;;17.72;100.00;101987.34;5014766;28;20108;-79
2023/06/25 00:24:53;;;;;;;15.80;12.65;;;;;;;17.72;100.00;101989.13;5032397;28;20030;-79
2023/06/25 00:27:19;;;;;;;17.10;14.20;;;;;;;17.36;100.00;101935.19;5014725;28;20025;-79
2023/06/25 00:29:44;;;;;;;15.75;13.13;;;;;;;17.68;100.00;101982.41;5032591;28;20360;-80
2023/06/25 00:32:13;;;;;;;17.13;13.57;;;;;;;17.43;100.00;101958.13;5014640;28;20044;-80
2023/06/25 00:34:41;;;;;;;17.92;13.52;;;;;;;17.59;100.00;101980.47;5032307;28;20029;-80
2023/06/25 00:37:16;;;;;;;16.23;13.02;;;;;;;17.54;100.00;101980.00;5032363;28;20108;-78
2023/06/25 00:39:46;;;;;;;17.17;13.25;;;;;;;17.50;100.00;101979.38;5032175;28;20029;-78
2023/06/25 00:42:12;;;;;;;19.50;13.88;;;;;;;17.40;100.00;101967.94;5032080;28;20026;-78
2023/06/25 00:44:41;;;;;;;18.48;13.88;;;;;;;17.42;100.00;101974.75;5031951;28;20116;-78
2023/06/25 00:47:24;;;;;;;16.73;14.20;;;;;;;17.42;100.00;101976.53;5032275;28;20026;-78
2023/06/25 00:49:49;;;;;;;18.73;14.00;;;;;;;17.27;100.00;101954.97;5032050;28;20029;-78
2023/06/25 00:52:15;;;;;;;18.20;13.02;;;;;;;17.18;100.00;101950.41;5032104;28;20063;-78
2023/06/25 00:54:43;;;;;;;18.65;14.40;;;;;;;17.33;100.00;101966.75;5031981;28;20037;-77
2023/06/25 00:57:09;;;;;;;18.50;14.35;;;;;;;17.16;100.00;101942.69;5032066;28;20202;-78
2023/06/25 00:59:41;;;;;;;18.05;13.27;;;;;;;17.35;100.00;101967.47;5032175;28;20032;-78
2023/06/25 01:02:44;;;;;;;17.40;13.73;;;;;;;17.28;100.00;101966.25;5032208;28;20506;-77
2023/06/25 01:05:12;;;;;;;19.20;13.60;;;;;;;17.19;100.00;101957.31;4969458;28;20042;-77
2023/06/25 01:07:43;;;;;;;18.38;13.25;;;;;;;17.09;100.00;101953.69;4974383;28;20462;-77
2023/06/25 01:10:11;;;;;;;22.63;13.73;;;;;;;17.11;100.00;101952.66;4990801;28;20026;-78
2023/06/25 01:12:37;;;;;;;18.15;15.07;;;;;;;17.08;100.00;101949.41;4990444;28;20121;-78
2023/06/25 01:15:03;;;;;;;17.25;14.32;;;;;;;17.00;100.00;101941.31;4990408;28;20117;-80
2023/06/25 01:17:29;;;;;;;16.38;13.82;;;;;;;17.01;100.00;101951.66;4993282;28;20056;-77
2023/06/25 01:19:54;;;;;;;17.75;14.57;;;;;;;17.02;100.00;101958.53;4993985;28;20038;-78
2023/06/25 01:22:30;;;;;;;18.48;14.30;;;;;;;16.99;100.00;101950.09;4994056;28;20088;-77
2023/06/25 01:24:59;;;;;;;18.70;14.02;;;;;;;16.78;100.00;101919.38;4993925;28;20038;-77
2023/06/25 01:27:25;;;;;;;18.90;14.45;;;;;;;16.87;100.00;101944.81;4993899;28;20034;-78
2023/06/25 01:29:50;;;;;;;18.75;13.35;;;;;;;16.87;100.00;101941.38;4993950;28;20039;-77
2023/06/25 01:32:18;;;;;;;17.02;13.50;;;;;;;16.85;100.00;101945.88;4993478;28;20574;-77
2023/06/25 01:34:44;;;;;;;17.60;14.20;;;;;;;16.70;100.00;101924.31;4993810;28;20066;-77
2023/06/25 01:37:10;;;;;;;17.58;14.25;;;;;;;16.81;100.00;101936.56;4993903;28;20504;-77
2023/06/25 01:39:36;;;;;;;18.83;14.50;;;;;;;16.70;100.00;101924.31;4980226;28;20038;-78
2023/06/25 01:42:02;;;;;;;17.60;14.55;;;;;;;16.75;100.00;101937.03;5035434;28;20037;-78
2023/06/25 01:44:30;;;;;;;16.38;14.23;;;;;;;16.52;100.00;101894.31;5035031;28;20033;-78
2023/06/25 01:46:56;;;;;;;16.92;13.85;;;;;;;16.68;100.00;101920.97;5034834;28;20111;-78
2023/06/25 01:49:22;;;;;;;18.80;15.20;;;;;;;16.65;100.00;101915.97;5034928;28;20052;-78
2023/06/25 01:51:48;;;;;;;19.17;14.88;;;;;;;16.64;100.00;101922.94;5033406;28;20041;-78
2023/06/25 01:54:13;;;;;;;16.90;13.77;;;;;;;16.59;100.00;101916.38;5034970;28;20025;-79
2023/06/25 01:56:39;;;;;;;17.15;13.68;;;;;;;16.58;100.00;101914.72;5050443;28;20581;-78
2023/06/25 01:59:04;;;;;;;17.63;14.43;;;;;;;16.59;100.00;101913.78;5034766;28;20029;-78
2023/06/25 02:01:29;;;;;;;19.55;14.38;;;;;;;16.57;100.00;101913.88;5034890;28;20032;-78
2023/06/25 02:03:55;;;;;;;16.98;14.05;;;;;;;16.40;100.00;101882.13;5034522;28;20049;-78
2023/06/25 02:06:21;;;;;;;17.80;14.02;;;;;;;16.51;100.00;101905.66;5034812;28;20030;-78
2023/06/25 02:08:46;;;;;;;18.67;14.98;;;;;;;16.47;100.00;101899.00;5034969;28;20029;-78
2023/06/25 02:11:12;;;;;;;20.48;14.93;;;;;;;16.42;100.00;101895.88;5034536;28;20026;-78
2023/06/25 02:13:37;;;;;;;18.35;14.02;;;;;;;16.38;100.00;101895.28;5034565;28;20032;-78
2023/06/25 02:16:03;;;;;;;16.95;13.98;;;;;;;16.39;100.00;101896.94;5034514;28;20022;-78
2023/06/25 02:18:28;;;;;;;17.70;14.68;;;;;;;16.16;100.00;101859.47;5034456;28;20029;-78
2023/06/25 02:20:54;;;;;;;19.17;15.38;;;;;;;16.36;100.00;101884.13;5034409;28;21108;-78
2023/06/25 02:23:19;;;;;;;19.35;15.40;;;;;;;16.19;100.00;101863.63;5034569;28;20029;-78
2023/06/25 02:25:45;;;;;;;20.40;16.08;;;;;;;16.22;100.00;101873.81;5034425;28;20052;-78
2023/06/25 02:28:10;;;;;;;20.23;16.02;;;;;;;16.26;100.00;101881.34;5033772;28;20029;-78
2023/06/25 02:30:35;;;;;;;17.10;14.32;;;;;;;16.23;100.00;101875.50;5015909;28;20038;-79
2023/06/25 02:33:01;;;;;;;19.38;15.85;;;;;;;16.01;100.00;101834.47;5034024;28;20490;-78
2023/06/25 02:35:26;;;;;;;19.02;15.23;;;;;;;15.89;100.00;101830.13;5033973;28;20475;-78
2023/06/25 02:37:52;;;;;;;17.38;14.35;;;;;;;16.15;100.00;101865.63;5015916;28;20111;-78
2023/06/25 02:40:17;;;;;;;18.73;14.70;;;;;;;16.05;100.00;101854.16;5034231;28;20471;-78
2023/06/25 02:42:43;;;;;;;20.25;15.27;;;;;;;16.02;100.00;101857.78;5033922;28;20033;-79
2023/06/25 02:45:09;;;;;;;16.63;14.40;;;;;;;15.96;100.00;101854.81;5034077;28;20030;-78
2023/06/25 02:47:34;;;;;;;18.42;16.25;;;;;;;16.03;100.00;101874.28;5033864;28;20029;-78
2023/06/25 02:49:59;;;;;;;17.40;14.45;;;;;;;16.00;100.00;101864.06;5033823;28;20025;-78
2023/06/25 02:52:25;;;;;;;18.02;15.95;;;;;;;16.00;100.00;101869.28;5033865;28;20041;-78
2023/06/25 02:54:50;;;;;;;19.88;15.88;;;;;;;15.98;100.00;101864.19;5033935;28;20044;-79
2023/06/25 02:57:15;;;;;;;19.40;16.13;;;;;;;16.02;100.00;101867.38;4999325;28;20044;-79
2023/06/25 02:59:41;;;;;;;18.92;16.02;;;;;;;15.99;100.00;101865.00;5033736;28;20592;-78
2023/06/25 03:02:06;;;;;;;17.15;15.18;;;;;;;15.96;100.00;101867.84;5033606;28;20040;-79
2023/06/25 03:04:32;;;;;;;17.92;16.02;;;;;;;15.94;100.00;101870.56;5021930;28;20037;-78
2023/06/25 03:06:57;;;;;;;18.08;16.10;;;;;;;15.87;100.00;101858.03;5030195;28;20021;-78
2023/06/25 03:09:22;;;;;;;20.40;17.75;;;;;;;15.89;100.00;101870.00;5012061;28;20116;-78
2023/06/25 03:11:47;;;;;;;18.75;16.73;;;;;;;15.66;100.00;101836.91;5013730;28;20034;-78
2023/06/25 03:14:13;;;;;;;21.70;18.33;;;;;;;15.74;100.00;101860.66;5013679;28;20026;-78
2023/06/25 03:16:38;;;;;;;20.90;17.50;;;;;;;15.80;100.00;101867.22;5013565;28;20026;-77
2023/06/25 03:19:04;;;;;;;22.05;18.75;;;;;;;15.62;100.00;101838.88;5013560;28;20488;-78
2023/06/25 03:21:30;;;;;;;22.35;18.20;;;;;;;15.79;100.00;101858.56;5013524;28;20479;-79
2023/06/25 03:23:55;;;;;;;20.42;18.33;;;;;;;15.61;100.00;101834.59;5013746;28;20084;-78
2023/06/25 03:26:21;;;;;;;20.17;17.95;;;;;;;15.77;100.00;101858.66;5013756;28;20026;-78
2023/06/25 03:28:46;;;;;;;21.45;18.15;;;;;;;15.74;100.00;101852.84;5012473;28;20030;-78
2023/06/25 03:31:11;;;;;;;22.05;19.65;;;;;;;15.66;100.00;101844.72;5067176;23;20046;-78
2023/06/25 03:33:37;;;;;;;21.52;18.90;;;;;;;15.61;100.00;101836.38;5013227;28;20022;-78
2023/06/25 03:36:02;;;;;;;20.95;18.48;;;;;;;15.61;100.00;101832.00;5013395;28;20494;-78
2023/06/25 03:38:28;;;;;;;22.65;20.05;;;;;;;15.75;100.00;101854.50;5012410;28;20443;-78
2023/06/25 03:40:53;;;;;;;22.70;20.45;;;;;;;15.70;100.00;101851.38;5013193;28;20032;-78
2023/06/25 03:43:18;;;;;;;22.33;19.58;;;;;;;15.66;100.00;101836.91;5013590;28;20022;-78
2023/06/25 03:45:44;;;;;;;23.23;19.85;;;;;;;15.74;100.00;101845.88;5013160;28;20025;-79
2023/06/25 03:48:09;;;;;;;22.30;19.88;;;;;;;15.68;100.00;101842.84;5012854;28;20030;-78
2023/06/25 03:50:35;;;;;;;22.35;19.95;;;;;;;15.75;100.00;101846.69;5012852;28;20053;-78
2023/06/25 03:53:00;;;;;;;24.60;19.90;;;;;;;15.76;100.00;101838.78;4995478;28;20048;-81
2023/06/25 03:55:26;;;;;;;21.98;19.67;;;;;;;15.75;100.00;101834.50;5013049;28;20022;-79
2023/06/25 03:57:52;;;;;;;21.92;19.52;;;;;;;15.79;100.00;101840.34;5013146;28;20034;-79
2023/06/25 04:00:18;;;;;;;23.38;20.30;;;;;;;15.50;100.00;101792.81;5013321;28;20053;-80
2023/06/25 04:02:43;;;;;;;23.55;21.15;;;;;;;15.66;100.00;101811.72;5012885;28;20049;-79
2023/06/25 04:05:08;;;;;;;21.80;19.38;;;;;;;15.71;100.00;101830.44;5012862;28;20044;-79
2023/06/25 04:07:33;;;;;;;20.75;18.65;;;;;;;15.55;100.00;101792.53;5012884;28;20499;-79
2023/06/25 04:09:59;;;;;;;23.35;19.92;;;;;;;15.64;100.00;101802.34;5012781;28;20037;-79
2023/06/25 04:12:24;;;;;;;21.23;19.10;;;;;;;15.88;100.00;101846.69;5012821;28;20034;-80
2023/06/25 04:14:50;;;;;;;21.77;19.48;;;;;;;15.91;100.00;101838.66;5012993;28;20025;-81
2023/06/25 04:17:15;;;;;;;22.92;20.48;;;;;;;15.99;100.00;101846.78;5013080;28;20467;-81
2023/06/25 04:19:42;;;;;;;22.10;19.90;;;;;;;16.08;100.00;101843.53;5012464;28;20048;-81
2023/06/25 04:22:07;;;;;;;22.55;20.10;;;;;;;16.18;100.00;101846.31;5012787;28;20117;-81
2023/06/25 04:24:33;;;;;;;22.23;19.80;;;;;;;16.25;100.00;101843.19;5012696;28;20026;-81
2023/06/25 04:26:58;;;;;;;23.38;21.10;;;;;;;16.45;100.00;101843.53;5012765;28;20053;-80
2023/06/25 04:29:24;;;;;;;24.23;21.58;;;;;;;16.60;100.00;101845.03;5012499;28;20026;-79
2023/06/25 04:31:49;;;;;;;22.92;20.50;;;;;;;16.80;100.00;101836.63;5012865;28;20088;-81
2023/06/25 04:34:15;;;;;;;22.45;20.13;;;;;;;16.90;100.00;101821.94;5012456;28;20026;-81
2023/06/25 04:36:40;;;;;;;22.75;20.38;;;;;;;17.05;100.00;101827.00;5012839;28;20105;-80
2023/06/25 04:39:06;;;;;;;22.10;18.80;;;;;;;17.12;100.00;101816.00;5012598;28;20143;-79
2023/06/25 04:41:31;;;;;;;20.25;18.13;;;;;;;17.39;100.00;101830.50;4994276;28;20061;-81
2023/06/25 04:43:56;;;;;;;22.15;19.80;;;;;;;17.56;100.00;101829.22;5012619;28;20064;-85
2023/06/25 04:46:22;;;;;;;22.10;19.00;;;;;;;17.76;100.00;101837.22;4995054;28;20042;-79
2023/06/25 04:48:47;;;;;;;22.85;20.45;;;;;;;17.77;100.00;101838.88;5012415;28;20430;-80
2023/06/25 04:51:13;;;;;;;22.67;20.45;;;;;;;17.78;100.00;101842.31;4997677;28;20053;-80
2023/06/25 04:53:39;;;;;;;21.45;19.15;;;;;;;17.70;100.00;101808.16;5031591;28;20479;-80
2023/06/25 04:56:04;;;;;;;23.60;21.30;;;;;;;17.93;100.00;101830.69;5015913;28;20034;-80
2023/06/25 04:58:30;;;;;;;23.27;20.85;;;;;;;17.89;100.00;101815.38;5016669;28;20112;-80
2023/06/25 05:00:55;;;;;;;22.95;20.65;;;;;;;18.19;100.00;101835.66;4998614;28;20034;-79
2023/06/25 05:05:46;;;;;;;24.02;21.73;;;;;;;18.55;100.00;101832.72;5074656;22;20045;-81
2023/06/25 05:08:11;;;;;;;24.83;22.42;;;;;;;18.90;100.00;101831.69;5055900;28;20028;-82
2023/06/25 05:10:37;;;;;;;23.13;20.90;;;;;;;19.13;100.00;101820.13;5038209;28;20037;-81
2023/06/25 05:13:03;;;;;;;23.40;20.88;;;;;;;19.46;100.00;101826.91;5055696;28;20064;-82
2023/06/25 05:15:29;;;;;;;23.23;20.55;;;;;;;19.84;100.00;101849.06;5055956;28;20082;-84
2023/06/25 05:17:54;;;;;;;22.95;20.52;;;;;;;20.04;100.00;101834.22;5055908;28;20428;-82
2023/06/25 05:20:20;;;;;;;22.60;20.30;;;;;;;20.39;99.27;101843.44;5055613;28;20463;-81
2023/06/25 05:22:45;;;;;;;20.42;18.20;;;;;;;20.78;92.89;101847.78;5055620;28;20505;-81
2023/06/25 05:25:10;;;;;;;20.52;18.42;;;;;;;21.09;91.38;101831.84;5055645;28;20025;-81
2023/06/25 05:27:36;;;;;;;22.35;20.02;;;;;;;21.53;91.10;101829.56;5055469;28;20036;-82
2023/06/25 05:30:02;;;;;;;21.30;19.10;;;;;;;22.22;88.19;101837.00;5037755;28;20028;-83
2023/06/25 05:32:28;;;;;;;18.17;16.27;;;;;;;23.14;82.57;101829.66;5043724;28;20038;-83
2023/06/25 05:34:53;;;;;;;20.30;16.92;;;;;;;24.11;72.67;101825.03;5035218;28;20037;-82
2023/06/25 05:37:18;;;;;;;19.67;16.20;;;;;;;24.80;71.31;101797.41;5035423;28;20067;-82
2023/06/25 05:39:44;;;;;;;18.60;16.45;;;;;;;25.97;64.94;101832.03;5017835;28;20025;-82
2023/06/25 05:42:09;;;;;;;18.58;16.63;;;;;;;27.01;57.95;101812.06;5035382;28;20030;-82
2023/06/25 05:44:34;;;;;;;17.73;15.75;;;;;;;27.82;55.80;101834.25;5035290;28;20113;-82
2023/06/25 05:47:00;;;;;;;19.38;16.00;;;;;;;28.50;54.46;101829.50;5035400;28;20087;-82
2023/06/25 05:49:25;;;;;;;16.95;15.15;;;;;;;29.07;51.20;101831.22;5035144;28;20060;-81
2023/06/25 05:51:51;;;;;;;19.45;16.00;;;;;;;29.51;49.29;101812.28;5035361;28;20087;-81
2023/06/25 05:54:16;;;;;;;17.80;15.70;;;;;;;30.08;47.74;101820.88;5042196;28;20083;-82
2023/06/25 05:56:41;;;;;;;17.27;15.38;;;;;;;30.58;43.88;101808.88;5037340;28;20025;-83
2023/06/25 05:59:06;;;;;;;17.55;15.68;;;;;;;30.75;44.63;101803.97;5036550;28;20037;-82
2023/06/25 06:01:32;;;;;;;17.60;14.95;;;;;;;31.10;43.15;101807.22;5053959;28;20029;-83
2023/06/25 06:03:57;;;;;;;17.30;15.07;;;;;;;31.58;41.38;101785.53;5054542;28;20025;-82
2023/06/25 06:06:24;;;;;;;18.63;14.23;;;;;;;32.06;39.63;101774.41;5054742;28;20381;-84
2023/06/25 06:08:50;;;;;;;16.67;14.98;;;;;;;32.22;39.17;101806.75;5054871;28;20079;-81
2023/06/25 06:11:15;;;;;;;16.38;14.65;;;;;;;32.74;38.87;101802.06;5054768;28;20029;-82
2023/06/25 06:13:40;;;;;;;18.13;15.13;;;;;;;32.76;39.03;101805.31;5036602;28;20540;-79
2023/06/25 06:16:07;;;;;;;16.45;14.75;;;;;;;33.29;36.43;101786.06;5054238;28;20099;-81
2023/06/25 06:18:32;;;;;;;15.40;13.48;;;;;;;33.90;35.71;101793.13;5054277;28;20044;-82
2023/06/25 06:20:57;;;;;;;15.20;13.60;;;;;;;33.51;36.05;101802.50;5054401;28;20063;-81
2023/06/25 06:23:24;;;;;;;15.43;13.65;;;;;;;33.92;35.72;101803.63;5054530;28;20098;-81
2023/06/25 06:25:49;;;;;;;16.35;14.65;;;;;;;33.77;35.94;101793.28;5054370;28;20025;-82
2023/06/25 06:28:14;;;;;;;16.70;14.32;;;;;;;34.47;34.27;101793.50;5054466;28;20063;-80
2023/06/25 06:30:57;;;;;;;15.90;13.27;;;;;;;34.60;38.25;101795.16;5055099;28;20040;-81
2023/06/25 06:33:23;;;;;;;14.38;12.38;;;;;;;34.66;34.14;101770.06;5054351;28;20036;-82
2023/06/25 06:35:48;;;;;;;15.07;13.57;;;;;;;35.41;32.67;101806.09;5053991;28;20017;-78
2023/06/25 06:38:13;;;;;;;15.05;13.55;;;;;;;35.91;30.31;101795.50;5054354;28;20036;-78
2023/06/25 06:40:39;;;;;;;14.80;13.20;;;;;;;35.75;31.46;101778.25;5036159;28;20040;-78
2023/06/25 06:43:04;;;;;;;15.07;13.48;;;;;;;35.86;31.44;101798.06;5054217;28;20027;-78
2023/06/25 06:45:29;;;;;;;14.88;13.27;;;;;;;36.46;30.86;101798.31;5053981;28;20432;-78
2023/06/25 06:47:55;;;;;;;14.82;13.23;;;;;;;36.48;29.85;101801.59;5054243;28;20075;-78
2023/06/25 06:50:20;;;;;;;14.20;12.70;;;;;;;36.88;30.18;101797.06;5053959;28;20413;-77
2023/06/25 06:52:46;;;;;;;15.40;13.40;;;;;;;36.86;29.41;101788.41;5053843;28;20036;-78
2023/06/25 06:55:11;;;;;;;14.70;13.20;;;;;;;37.07;29.44;101760.69;5053893;28;20025;-77
2023/06/25 06:57:37;;;;;;;16.17;13.93;;;;;;;37.25;28.48;101773.00;5053769;28;20174;-78
2023/06/25 07:00:06;;;;;;;15.65;13.77;;;;;;;37.31;29.39;101789.03;5053612;28;20467;-78
2023/06/25 07:02:31;;;;;;;15.02;13.40;;;;;;;37.40;29.41;101797.47;5053855;28;20068;-77
2023/06/25 07:04:57;;;;;;;15.30;13.55;;;;;;;37.61;28.93;101788.53;5053740;28;20065;-78
2023/06/25 07:07:23;;;;;;;15.45;13.63;;;;;;;37.62;29.03;101792.03;5053478;28;20029;-76
2023/06/25 07:09:53;;;;;;;15.85;13.85;;;;;;;37.70;27.94;101759.25;5053367;28;20100;-78
2023/06/25 07:12:19;;;;;;;16.38;14.68;;;;;;;37.51;26.69;101784.94;5053441;28;20073;-77
2023/06/25 07:14:44;;;;;;;15.90;13.55;;;;;;;37.84;27.71;101765.84;5052241;28;20170;-77
2023/06/25 07:17:10;;;;;;;15.77;14.07;;;;;;;37.94;27.28;101780.50;5018837;28;20103;-78
2023/06/25 07:19:35;;;;;;;15.43;13.68;;;;;;;37.83;27.77;101774.22;5053364;28;20481;-77
2023/06/25 07:22:00;;;;;;;18.75;15.18;;;;;;;38.35;26.12;101782.50;5053064;28;20110;-78
2023/06/25 07:24:25;;;;;;;16.83;15.02;;;;;;;38.41;26.53;101781.44;5053333;28;20059;-78
2023/06/25 07:26:51;;;;;;;17.38;14.85;;;;;;;38.15;26.07;101766.09;5034639;28;20045;-78
2023/06/25 07:29:16;;;;;;;15.43;13.35;;;;;;;38.56;25.75;101786.13;5053248;28;20120;-79
2023/06/25 07:31:41;;;;;;;16.55;13.60;;;;;;;38.38;25.56;101759.56;5053228;28;20074;-78
2023/06/25 07:34:07;;;;;;;15.35;13.85;;;;;;;38.47;25.56;101785.00;5053089;28;20036;-78
2023/06/25 07:36:32;;;;;;;19.27;13.88;;;;;;;38.14;27.06;101773.38;5052786;28;20021;-80
2023/06/25 07:39:02;;;;;;;15.90;13.35;;;;;;;37.97;26.19;101747.66;5053180;28;20021;-79
2023/06/25 07:41:27;;;;;;;14.15;12.65;;;;;;;38.00;26.40;101774.91;5053136;28;20029;-77
2023/06/25 07:43:54;;;;;;;13.18;11.77;;;;;;;37.18;27.31;101772.41;5052864;28;20493;-78
2023/06/25 07:46:20;;;;;;;13.18;11.32;;;;;;;35.30;30.63;101772.78;5052918;28;20029;-78
2023/06/25 07:48:45;;;;;;;13.38;11.82;;;;;;;33.54;32.43;101774.47;5052872;28;20078;-78
2023/06/25 07:51:10;;;;;;;11.85;10.45;;;;;;;32.24;35.07;101769.09;5052774;28;20082;-79
2023/06/25 07:53:36;;;;;;;13.75;10.52;;;;;;;31.28;35.16;101766.56;5052711;28;20029;-77
2023/06/25 07:56:01;;;;;;;13.05;9.82;;;;;;;30.43;36.45;101765.59;5052765;28;20025;-78
2023/06/25 07:58:27;;;;;;;14.57;10.18;;;;;;;29.70;37.82;101749.50;5034521;28;20052;-79
2023/06/25 08:00:52;;;;;;;11.65;8.93;;;;;;;29.09;38.44;101725.44;5052736;28;20498;-79
2023/06/25 08:03:17;;;;;;;12.02;9.05;;;;;;;28.98;40.23;101763.22;5052480;28;20052;-78
2023/06/25 08:05:43;;;;;;;12.43;8.07;;;;;;;28.69;42.54;101757.06;5052235;28;20041;-78
2023/06/25 08:08:08;;;;;;;12.10;9.20;;;;;;;28.51;42.50;101760.22;5052473;28;20100;-79
2023/06/25 08:10:33;;;;;;;12.57;8.88;;;;;;;28.42;43.72;101761.38;5052517;28;20044;-79
2023/06/25 08:12:59;;;;;;;12.25;8.38;;;;;;;28.28;42.70;101754.28;5034402;28;20033;-79
2023/06/25 08:15:24;;;;;;;12.40;8.57;;;;;;;28.12;43.38;101757.16;5052499;28;20104;-79
2023/06/25 08:17:49;;;;;;;10.68;8.40;;;;;;;28.04;43.47;101742.19;5052347;28;20470;-79
2023/06/25 08:20:15;;;;;;;12.13;8.30;;;;;;;28.08;44.19;101755.91;5052597;28;20029;-79
2023/06/25 08:22:40;;;;;;;12.30;9.15;;;;;;;27.93;44.17;101750.66;5052174;28;20086;-79
2023/06/25 08:25:17;;;;;;;11.48;9.02;;;;;;;27.85;44.42;101758.75;5051906;28;20024;-79
2023/06/25 08:27:43;;;;;;;11.43;8.35;;;;;;;27.90;46.94;101762.47;5052374;28;20033;-80
2023/06/25 08:30:09;;;;;;;11.73;8.02;;;;;;;27.97;46.65;101751.94;5052393;28;20536;-79
2023/06/25 08:32:34;;;;;;;11.50;9.20;;;;;;;28.01;46.52;101755.84;5052131;28;20041;-79
2023/06/25 08:34:59;;;;;;;11.82;9.07;;;;;;;27.67;46.01;101717.50;5052322;28;20103;-79
2023/06/25 08:37:24;;;;;;;10.32;7.93;;;;;;;27.88;45.89;101750.41;5047789;28;20440;-78
2023/06/25 08:39:50;;;;;;;10.90;8.32;;;;;;;27.82;46.73;101738.69;5032263;28;20021;-78
2023/06/25 08:42:15;;;;;;;13.20;8.50;;;;;;;27.79;47.63;101719.66;5032435;28;20497;-79
2023/06/25 08:44:40;;;;;;;10.60;7.38;;;;;;;27.70;45.03;101714.47;5032295;28;20026;-79
2023/06/25 08:47:09;;;;;;;11.13;7.78;;;;;;;27.82;47.79;101738.69;5032048;28;20036;-79
2023/06/25 08:49:36;;;;;;;10.68;7.35;;;;;;;27.82;46.01;101724.59;5037614;28;20063;-77
2023/06/25 08:52:01;;;;;;;10.75;7.45;;;;;;;27.92;46.73;101727.75;5052663;28;20029;-79
2023/06/25 08:54:27;;;;;;;8.57;6.43;;;;;;;27.96;47.77;101713.94;5051875;28;20096;-79
2023/06/25 08:56:52;;;;;;;9.80;6.20;;;;;;;28.08;46.04;101722.22;5051994;28;20025;-78
2023/06/25 08:59:18;;;;;;;8.65;6.80;;;;;;;27.94;46.96;101710.66;5052513;28;20036;-78
2023/06/25 09:01:43;;;;;;;9.57;5.82;;;;;;;28.04;47.22;101710.34;5053759;28;20025;-79
2023/06/25 09:04:09;;;;;;;7.72;5.40;;;;;;;28.25;44.95;101730.75;5053923;28;20063;-79
2023/06/25 09:06:41;;;;;;;7.90;5.68;;;;;;;28.16;44.70;101716.78;5034307;28;20031;-79
2023/06/25 09:09:10;;;;;;;6.40;5.10;;;;;;;28.30;44.85;101738.97;5051815;28;20029;-77
2023/06/25 09:11:38;;;;;;;8.25;5.07;;;;;;;28.25;44.61;101722.78;5051398;28;20378;-78
2023/06/25 09:14:05;;;;;;;8.52;5.43;;;;;;;28.14;44.92;101712.69;5051560;28;20029;-78
2023/06/25 09:16:31;;;;;;;9.07;5.32;;;;;;;28.18;44.72;101714.75;5051627;28;20029;-78
2023/06/25 09:18:56;;;;;;;6.88;5.20;;;;;;;28.31;44.60;101731.84;5051974;28;20031;-77
2023/06/25 09:21:21;;;;;;;9.38;4.97;;;;;;;28.34;45.11;101718.19;5051916;28;20059;-77
2023/06/25 09:23:53;;;;;;;6.30;4.72;;;;;;;28.47;43.87;101720.94;5051965;28;20020;-78
2023/06/25 09:26:18;;;;;;;8.82;5.32;;;;;;;28.46;44.88;101721.97;5052061;28;20071;-78
2023/06/25 09:28:59;;;;;;;7.28;5.03;;;;;;;28.42;45.36;101708.25;5051870;28;20025;-76
2023/06/25 09:31:24;;;;;;;8.27;5.35;;;;;;;28.51;45.35;101706.25;5033453;28;20384;-76
2023/06/25 09:33:53;;;;;;;7.47;5.38;;;;;;;28.53;46.10;101715.69;5052030;28;20039;-78
2023/06/25 09:36:19;;;;;;;7.20;4.70;;;;;;;28.45;45.26;101705.19;5051863;28;20549;-77
2023/06/25 09:38:45;;;;;;;7.32;5.25;;;;;;;28.60;45.10;101720.22;5020154;28;20065;-76
2023/06/25 09:41:17;;;;;;;7.32;5.25;;;;;;;28.62;44.49;101710.22;5055301;28;20029;-77
2023/06/25 09:43:43;;;;;;;6.45;4.80;;;;;;;28.70;46.01;101686.94;5055118;28;20028;-77
2023/06/25 09:46:14;;;;;;;7.25;5.22;;;;;;;28.81;45.55;101693.59;5055112;28;20036;-77
2023/06/25 09:48:41;;;;;;;;;;;;;;;28.87;44.84;101703.41;5055565;28;20078;-77
2023/06/25 09:51:08;;;;;;;6.45;4.95;;;;;;;28.69;43.94;101703.91;5055210;28;19916;-78
2023/06/25 09:53:38;;;;;;;6.68;5.10;;;;;;;28.80;43.78;101706.03;5054938;28;20025;-78
2023/06/25 09:56:06;;;;;;;7.75;4.82;;;;;;;28.86;44.97;101694.63;5055160;28;20382;-76
2023/06/25 09:58:31;;;;;;;8.73;5.38;;;;;;;28.71;44.07;101671.81;5054760;28;20474;-77
2023/06/25 10:00:57;;;;;;;8.35;5.10;;;;;;;28.73;43.90;101675.94;5054833;28;20103;-78
2023/06/25 10:03:23;;;;;;;6.95;4.88;;;;;;;28.97;43.27;101703.09;5054793;28;20021;-78
2023/06/25 10:05:51;;;;;;;7.72;5.00;;;;;;;28.98;45.56;101686.94;5054556;28;20124;-79
2023/06/25 10:08:18;;;;;;;6.45;5.03;;;;;;;29.05;43.61;101698.44;5036982;28;20044;-79
2023/06/25 10:10:55;;;;;;;8.30;4.80;;;;;;;28.92;44.60;101663.81;5054455;28;20017;-78
2023/06/25 10:13:21;;;;;;;6.65;4.70;;;;;;;29.14;44.02;101683.94;5054285;28;20035;-79
2023/06/25 10:15:47;;;;;;;6.35;4.57;;;;;;;29.15;43.35;101679.44;5054753;28;20029;-78
2023/06/25 10:18:22;;;;;;;6.75;4.95;;;;;;;29.04;44.15;101662.22;5054525;28;20020;-79
2023/06/25 10:20:47;;;;;;;7.50;4.38;;;;;;;29.09;42.09;101667.75;5054638;28;20063;-79
2023/06/25 10:23:13;;;;;;;6.60;4.40;;;;;;;29.25;43.46;101679.91;5054531;28;20032;-79
2023/06/25 10:25:50;;;;;;;7.65;4.95;;;;;;;29.33;43.40;101682.38;5054138;28;20037;-76
2023/06/25 10:28:16;;;;;;;7.00;4.60;;;;;;;29.37;43.29;101670.31;5036594;28;20025;-79
2023/06/25 10:30:48;;;;;;;7.13;4.55;;;;;;;29.50;44.37;101672.25;5054692;28;20580;-77
2023/06/25 10:33:17;;;;;;;7.68;5.05;;;;;;;29.51;41.34;101660.56;5054323;28;20493;-78
2023/06/25 10:35:46;;;;;;;7.47;4.93;;;;;;;29.57;40.64;101662.41;5054449;28;20032;-78
2023/06/25 10:38:12;;;;;;;6.53;4.38;;;;;;;29.51;41.44;101638.47;5054319;28;20032;-78
2023/06/25 10:40:39;;;;;;;8.45;4.75;;;;;;;29.50;40.41;101655.44;5053798;28;20028;-78
2023/06/25 10:43:05;;;;;;;7.03;4.45;;;;;;;29.70;42.57;101664.31;5054000;28;20060;-78
2023/06/25 10:45:31;;;;;;;6.43;4.80;;;;;;;29.68;41.02;101663.66;5054121;28;20025;-79
2023/06/25 10:48:10;;;;;;;5.95;4.18;;;;;;;29.65;40.05;101659.56;5053715;28;20031;-78
2023/06/25 10:50:36;;;;;;;6.90;4.53;;;;;;;29.78;42.81;101653.44;5053929;28;20486;-79
2023/06/25 10:53:03;;;;;;;7.88;4.90;;;;;;;29.78;40.14;101648.09;5035835;28;20063;-78
2023/06/25 10:55:28;;;;;;;5.82;4.28;;;;;;;29.69;39.07;101636.00;5035286;28;20103;-79
2023/06/25 10:57:55;;;;;;;8.02;4.97;;;;;;;29.69;39.25;101636.84;5053819;28;20425;-79
2023/06/25 11:00:25;;;;;;;6.13;4.32;;;;;;;29.69;40.36;101622.69;5053883;28;20377;-79
2023/06/25 11:02:54;;;;;;;7.60;5.00;;;;;;;29.82;39.34;101641.38;5053761;28;20048;-79
2023/06/25 11:05:23;;;;;;;7.82;4.50;;;;;;;29.92;40.67;101641.78;5051373;28;20514;-79
2023/06/25 11:07:53;;;;;;;7.03;4.70;;;;;;;29.87;40.08;101638.06;5053476;28;20033;-79
2023/06/25 11:10:18;;;;;;;7.20;4.57;;;;;;;29.92;39.58;101633.78;5053482;28;20390;-79
2023/06/25 11:12:44;;;;;;;6.00;4.72;;;;;;;29.95;40.96;101629.91;5053443;28;20029;-78